sensor_id;sensor_type;location;lat;lon;timestamp;P1;durP1;ratioP1;P2;durP2;ratioP2
54460;SDS011;40371;49.414;11.010;2023-03-01T00:00:54;14.27;;;10.83;;
54460;SDS011;40371;49.414;11.010;2023-03-01T00:03:19;14.73;;;11.73;;
54460;SDS011;40371;49.414;11.010;2023-03-01T00:05:45;14.10;;;11.73;;
54460;SDS011;40371;49.414;11.010;2023-03-01T00:08:12;15.80;;;11.67;;
54460;SDS011;40371;49.414;11.010;2023-03-01T00:10:37;12.67;;;10.90;;
54460;SDS011;40371;49.414;11.010;2023-03-01T00:13:03;16.00;;;11.30;;
54460;SDS011;40371;49.414;11.010;2023-03-01T00:15:30;16.30;;;12.30;;
54460;SDS011;40371;49.414;11.010;2023-03-01T00:17:56;16.67;;;12.53;;
54460;SDS011;40371;49.414;11.010;2023-03-01T00:20:22;16.97;;;12.53;;
54460;SDS011;40371;49.414;11.010;2023-03-01T00:22:48;16.97;;;11.53;;
54460;SDS011;40371;49.414;11.010;2023-03-01T00:25:13;15.70;;;11.83;;
54460;SDS011;40371;49.414;11.010;2023-03-01T00:27:39;15.30;;;11.57;;
54460;SDS011;40371;49.414;11.010;2023-03-01T00:30:05;14.80;;;11.37;;
54460;SDS011;40371;49.414;11.010;2023-03-01T00:32:31;15.43;;;12.23;;
54460;SDS011;40371;49.414;11.010;2023-03-01T00:34:56;15.37;;;11.97;;
54460;SDS011;40371;49.414;11.010;2023-03-01T00:37:22;16.43;;;11.93;;
54460;SDS011;40371;49.414;11.010;2023-03-01T00:39:49;15.40;;;12.10;;
54460;SDS011;40371;49.414;11.010;2023-03-01T00:42:15;16.27;;;11.67;;
54460;SDS011;40371;49.414;11.010;2023-03-01T00:44:41;12.80;;;11.03;;
54460;SDS011;40371;49.414;11.010;2023-03-01T00:47:06;15.53;;;11.67;;
54460;SDS011;40371;49.414;11.010;2023-03-01T00:49:32;14.70;;;11.27;;
54460;SDS011;40371;49.414;11.010;2023-03-01T00:51:57;17.20;;;12.23;;
54460;SDS011;40371;49.414;11.010;2023-03-01T00:54:23;15.63;;;12.33;;
54460;SDS011;40371;49.414;11.010;2023-03-01T00:56:49;15.07;;;11.97;;
54460;SDS011;40371;49.414;11.010;2023-03-01T00:59:14;15.53;;;12.07;;
54460;SDS011;40371;49.414;11.010;2023-03-01T01:01:40;16.30;;;11.83;;
54460;SDS011;40371;49.414;11.010;2023-03-01T01:04:06;16.27;;;12.27;;
54460;SDS011;40371;49.414;11.010;2023-03-01T01:06:44;15.77;;;11.63;;
54460;SDS011;40371;49.414;11.010;2023-03-01T01:09:11;12.43;;;10.43;;
54460;SDS011;40371;49.414;11.010;2023-03-01T01:11:42;16.23;;;11.73;;
54460;SDS011;40371;49.414;11.010;2023-03-01T01:14:09;16.83;;;11.23;;
54460;SDS011;40371;49.414;11.010;2023-03-01T01:16:35;17.43;;;11.60;;
54460;SDS011;40371;49.414;11.010;2023-03-01T01:19:00;15.07;;;11.07;;
54460;SDS011;40371;49.414;11.010;2023-03-01T01:21:26;15.53;;;11.93;;
54460;SDS011;40371;49.414;11.010;2023-03-01T01:23:52;13.37;;;11.43;;
54460;SDS011;40371;49.414;11.010;2023-03-01T01:26:19;13.77;;;10.83;;
54460;SDS011;40371;49.414;11.010;2023-03-01T01:28:48;19.57;;;11.97;;
54460;SDS011;40371;49.414;11.010;2023-03-01T01:31:15;17.80;;;12.03;;
54460;SDS011;40371;49.414;11.010;2023-03-01T01:33:41;16.50;;;11.13;;
54460;SDS011;40371;49.414;11.010;2023-03-01T01:36:07;16.10;;;11.63;;
54460;SDS011;40371;49.414;11.010;2023-03-01T01:38:34;15.10;;;11.73;;
54460;SDS011;40371;49.414;11.010;2023-03-01T01:41:01;13.83;;;10.93;;
54460;SDS011;40371;49.414;11.010;2023-03-01T01:43:28;14.97;;;11.77;;
54460;SDS011;40371;49.414;11.010;2023-03-01T01:45:57;17.43;;;11.53;;
54460;SDS011;40371;49.414;11.010;2023-03-01T01:48:32;14.07;;;11.50;;
54460;SDS011;40371;49.414;11.010;2023-03-01T01:51:05;18.90;;;12.37;;
54460;SDS011;40371;49.414;11.010;2023-03-01T01:53:36;15.83;;;12.30;;
54460;SDS011;40371;49.414;11.010;2023-03-01T01:56:03;19.83;;;12.67;;
54460;SDS011;40371;49.414;11.010;2023-03-01T01:58:33;16.03;;;11.77;;
54460;SDS011;40371;49.414;11.010;2023-03-01T02:00:59;15.47;;;11.83;;
54460;SDS011;40371;49.414;11.010;2023-03-01T02:03:27;15.80;;;10.87;;
54460;SDS011;40371;49.414;11.010;2023-03-01T02:06:00;14.20;;;10.60;;
54460;SDS011;40371;49.414;11.010;2023-03-01T02:08:31;18.03;;;12.23;;
54460;SDS011;40371;49.414;11.010;2023-03-01T02:11:00;17.23;;;11.77;;
54460;SDS011;40371;49.414;11.010;2023-03-01T02:13:28;16.43;;;11.77;;
54460;SDS011;40371;49.414;11.010;2023-03-01T02:15:55;17.63;;;12.10;;
54460;SDS011;40371;49.414;11.010;2023-03-01T02:18:21;15.80;;;11.43;;
54460;SDS011;40371;49.414;11.010;2023-03-01T02:23:48;16.33;;;11.33;;
54460;SDS011;40371;49.414;11.010;2023-03-01T02:28:47;17.30;;;12.63;;
54460;SDS011;40371;49.414;11.010;2023-03-01T02:31:14;15.03;;;12.33;;
54460;SDS011;40371;49.414;11.010;2023-03-01T02:34:01;13.93;;;11.63;;
54460;SDS011;40371;49.414;11.010;2023-03-01T02:36:30;17.10;;;11.47;;
54460;SDS011;40371;49.414;11.010;2023-03-01T02:39:05;17.03;;;11.40;;
54460;SDS011;40371;49.414;11.010;2023-03-01T02:41:36;17.50;;;11.87;;
54460;SDS011;40371;49.414;11.010;2023-03-01T02:44:04;18.50;;;11.57;;
54460;SDS011;40371;49.414;11.010;2023-03-01T02:46:30;19.47;;;12.87;;
54460;SDS011;40371;49.414;11.010;2023-03-01T02:48:57;17.87;;;12.60;;
54460;SDS011;40371;49.414;11.010;2023-03-01T02:56:49;16.67;;;10.93;;
54460;SDS011;40371;49.414;11.010;2023-03-01T02:59:18;16.70;;;11.30;;
54460;SDS011;40371;49.414;11.010;2023-03-01T03:01:46;16.07;;;11.57;;
54460;SDS011;40371;49.414;11.010;2023-03-01T03:04:14;14.90;;;11.33;;
54460;SDS011;40371;49.414;11.010;2023-03-01T03:06:46;16.70;;;12.57;;
54460;SDS011;40371;49.414;11.010;2023-03-01T03:09:15;16.70;;;12.13;;
54460;SDS011;40371;49.414;11.010;2023-03-01T03:11:41;16.73;;;11.37;;
54460;SDS011;40371;49.414;11.010;2023-03-01T03:14:08;18.23;;;12.50;;
54460;SDS011;40371;49.414;11.010;2023-03-01T03:16:41;16.47;;;12.57;;
54460;SDS011;40371;49.414;11.010;2023-03-01T03:19:09;17.10;;;11.90;;
54460;SDS011;40371;49.414;11.010;2023-03-01T03:21:35;16.40;;;11.60;;
54460;SDS011;40371;49.414;11.010;2023-03-01T03:24:01;14.70;;;11.07;;
54460;SDS011;40371;49.414;11.010;2023-03-01T03:26:27;15.80;;;12.03;;
54460;SDS011;40371;49.414;11.010;2023-03-01T03:28:53;16.63;;;11.87;;
54460;SDS011;40371;49.414;11.010;2023-03-01T03:31:19;17.10;;;11.83;;
54460;SDS011;40371;49.414;11.010;2023-03-01T03:33:45;14.27;;;11.27;;
54460;SDS011;40371;49.414;11.010;2023-03-01T03:36:15;17.70;;;11.23;;
54460;SDS011;40371;49.414;11.010;2023-03-01T03:38:42;17.23;;;11.53;;
54460;SDS011;40371;49.414;11.010;2023-03-01T03:41:09;19.13;;;11.67;;
54460;SDS011;40371;49.414;11.010;2023-03-01T03:43:36;16.13;;;11.27;;
54460;SDS011;40371;49.414;11.010;2023-03-01T03:46:03;15.23;;;11.43;;
54460;SDS011;40371;49.414;11.010;2023-03-01T03:48:33;16.30;;;11.83;;
54460;SDS011;40371;49.414;11.010;2023-03-01T03:51:00;18.17;;;12.17;;
54460;SDS011;40371;49.414;11.010;2023-03-01T03:53:27;15.37;;;11.73;;
54460;SDS011;40371;49.414;11.010;2023-03-01T03:55:54;15.33;;;11.60;;
54460;SDS011;40371;49.414;11.010;2023-03-01T03:58:21;15.50;;;12.27;;
54460;SDS011;40371;49.414;11.010;2023-03-01T04:00:49;15.20;;;11.00;;
54460;SDS011;40371;49.414;11.010;2023-03-01T04:03:17;18.47;;;11.87;;
54460;SDS011;40371;49.414;11.010;2023-03-01T04:05:45;16.07;;;11.93;;
54460;SDS011;40371;49.414;11.010;2023-03-01T04:08:11;14.83;;;11.90;;
54460;SDS011;40371;49.414;11.010;2023-03-01T04:10:37;14.77;;;11.47;;
54460;SDS011;40371;49.414;11.010;2023-03-01T04:13:05;16.37;;;12.00;;
54460;SDS011;40371;49.414;11.010;2023-03-01T04:15:32;16.57;;;12.43;;
54460;SDS011;40371;49.414;11.010;2023-03-01T04:17:59;15.87;;;11.47;;
54460;SDS011;40371;49.414;11.010;2023-03-01T04:20:26;13.60;;;11.00;;
54460;SDS011;40371;49.414;11.010;2023-03-01T04:23:07;14.53;;;12.00;;
54460;SDS011;40371;49.414;11.010;2023-03-01T04:25:49;17.23;;;11.40;;
54460;SDS011;40371;49.414;11.010;2023-03-01T04:28:19;19.77;;;12.77;;
54460;SDS011;40371;49.414;11.010;2023-03-01T04:30:52;16.97;;;12.40;;
54460;SDS011;40371;49.414;11.010;2023-03-01T04:33:18;17.20;;;12.27;;
54460;SDS011;40371;49.414;11.010;2023-03-01T04:35:44;16.10;;;11.50;;
54460;SDS011;40371;49.414;11.010;2023-03-01T04:38:10;17.13;;;12.23;;
54460;SDS011;40371;49.414;11.010;2023-03-01T04:40:36;16.33;;;12.07;;
54460;SDS011;40371;49.414;11.010;2023-03-01T04:43:03;17.10;;;11.03;;
54460;SDS011;40371;49.414;11.010;2023-03-01T04:45:30;17.47;;;12.43;;
54460;SDS011;40371;49.414;11.010;2023-03-01T04:47:59;15.13;;;11.60;;
54460;SDS011;40371;49.414;11.010;2023-03-01T04:50:24;15.20;;;11.30;;
54460;SDS011;40371;49.414;11.010;2023-03-01T04:52:50;16.13;;;11.57;;
54460;SDS011;40371;49.414;11.010;2023-03-01T04:55:17;15.60;;;10.83;;
54460;SDS011;40371;49.414;11.010;2023-03-01T04:57:42;15.93;;;11.30;;
54460;SDS011;40371;49.414;11.010;2023-03-01T05:00:09;16.53;;;11.80;;
54460;SDS011;40371;49.414;11.010;2023-03-01T05:02:47;15.33;;;11.40;;
54460;SDS011;40371;49.414;11.010;2023-03-01T05:05:18;14.70;;;11.00;;
54460;SDS011;40371;49.414;11.010;2023-03-01T05:07:44;18.53;;;11.57;;
54460;SDS011;40371;49.414;11.010;2023-03-01T05:10:10;14.93;;;12.00;;
54460;SDS011;40371;49.414;11.010;2023-03-01T05:12:35;14.93;;;11.83;;
54460;SDS011;40371;49.414;11.010;2023-03-01T05:15:02;16.63;;;12.07;;
54460;SDS011;40371;49.414;11.010;2023-03-01T05:17:32;15.70;;;11.43;;
54460;SDS011;40371;49.414;11.010;2023-03-01T05:19:59;16.33;;;11.60;;
54460;SDS011;40371;49.414;11.010;2023-03-01T05:22:25;15.10;;;11.43;;
54460;SDS011;40371;49.414;11.010;2023-03-01T05:24:50;15.47;;;11.80;;
54460;SDS011;40371;49.414;11.010;2023-03-01T05:27:16;15.27;;;12.43;;
54460;SDS011;40371;49.414;11.010;2023-03-01T05:29:41;15.30;;;11.83;;
54460;SDS011;40371;49.414;11.010;2023-03-01T05:32:07;16.47;;;12.20;;
54460;SDS011;40371;49.414;11.010;2023-03-01T05:34:35;16.23;;;12.10;;
54460;SDS011;40371;49.414;11.010;2023-03-01T05:37:01;16.60;;;11.43;;
54460;SDS011;40371;49.414;11.010;2023-03-01T05:39:27;18.20;;;12.37;;
54460;SDS011;40371;49.414;11.010;2023-03-01T05:41:58;15.67;;;11.77;;
54460;SDS011;40371;49.414;11.010;2023-03-01T05:44:25;14.93;;;11.57;;
54460;SDS011;40371;49.414;11.010;2023-03-01T05:46:52;17.90;;;12.27;;
54460;SDS011;40371;49.414;11.010;2023-03-01T05:49:18;16.63;;;12.03;;
54460;SDS011;40371;49.414;11.010;2023-03-01T05:51:47;14.60;;;11.43;;
54460;SDS011;40371;49.414;11.010;2023-03-01T05:54:14;17.50;;;12.90;;
54460;SDS011;40371;49.414;11.010;2023-03-01T05:56:39;16.27;;;11.93;;
54460;SDS011;40371;49.414;11.010;2023-03-01T05:59:05;16.93;;;11.67;;
54460;SDS011;40371;49.414;11.010;2023-03-01T06:01:32;18.13;;;12.53;;
54460;SDS011;40371;49.414;11.010;2023-03-01T06:03:58;18.53;;;13.20;;
54460;SDS011;40371;49.414;11.010;2023-03-01T06:06:24;16.37;;;11.73;;
54460;SDS011;40371;49.414;11.010;2023-03-01T06:08:50;19.77;;;12.27;;
54460;SDS011;40371;49.414;11.010;2023-03-01T06:11:17;21.43;;;12.30;;
54460;SDS011;40371;49.414;11.010;2023-03-01T06:13:43;17.50;;;11.53;;
54460;SDS011;40371;49.414;11.010;2023-03-01T06:16:10;16.10;;;12.20;;
54460;SDS011;40371;49.414;11.010;2023-03-01T06:18:36;19.87;;;12.60;;
54460;SDS011;40371;49.414;11.010;2023-03-01T06:21:02;18.40;;;12.13;;
54460;SDS011;40371;49.414;11.010;2023-03-01T06:23:28;18.53;;;12.83;;
54460;SDS011;40371;49.414;11.010;2023-03-01T06:25:54;15.83;;;12.23;;
54460;SDS011;40371;49.414;11.010;2023-03-01T06:28:20;16.67;;;12.67;;
54460;SDS011;40371;49.414;11.010;2023-03-01T06:30:45;17.00;;;12.03;;
54460;SDS011;40371;49.414;11.010;2023-03-01T06:33:13;15.23;;;12.63;;
54460;SDS011;40371;49.414;11.010;2023-03-01T06:35:39;18.50;;;13.60;;
54460;SDS011;40371;49.414;11.010;2023-03-01T06:38:04;18.17;;;12.60;;
54460;SDS011;40371;49.414;11.010;2023-03-01T06:40:31;19.93;;;13.00;;
54460;SDS011;40371;49.414;11.010;2023-03-01T06:42:57;19.27;;;12.50;;
54460;SDS011;40371;49.414;11.010;2023-03-01T06:45:24;19.23;;;13.77;;
54460;SDS011;40371;49.414;11.010;2023-03-01T06:47:49;18.47;;;13.63;;
54460;SDS011;40371;49.414;11.010;2023-03-01T06:50:16;17.70;;;12.53;;
54460;SDS011;40371;49.414;11.010;2023-03-01T06:52:43;18.00;;;13.23;;
54460;SDS011;40371;49.414;11.010;2023-03-01T06:55:10;18.73;;;13.73;;
54460;SDS011;40371;49.414;11.010;2023-03-01T06:57:36;18.10;;;13.93;;
54460;SDS011;40371;49.414;11.010;2023-03-01T07:00:04;19.90;;;13.83;;
54460;SDS011;40371;49.414;11.010;2023-03-01T07:02:31;17.23;;;12.20;;
54460;SDS011;40371;49.414;11.010;2023-03-01T07:04:57;16.40;;;12.73;;
54460;SDS011;40371;49.414;11.010;2023-03-01T07:07:23;18.40;;;13.37;;
54460;SDS011;40371;49.414;11.010;2023-03-01T07:09:49;18.10;;;12.37;;
54460;SDS011;40371;49.414;11.010;2023-03-01T07:12:15;15.03;;;12.30;;
54460;SDS011;40371;49.414;11.010;2023-03-01T07:14:40;16.37;;;13.13;;
54460;SDS011;40371;49.414;11.010;2023-03-01T07:17:06;16.97;;;13.37;;
54460;SDS011;40371;49.414;11.010;2023-03-01T07:19:32;17.63;;;13.13;;
54460;SDS011;40371;49.414;11.010;2023-03-01T07:21:58;18.50;;;13.17;;
54460;SDS011;40371;49.414;11.010;2023-03-01T07:24:23;18.00;;;12.83;;
54460;SDS011;40371;49.414;11.010;2023-03-01T07:26:49;17.03;;;13.30;;
54460;SDS011;40371;49.414;11.010;2023-03-01T07:29:16;17.23;;;13.57;;
54460;SDS011;40371;49.414;11.010;2023-03-01T07:31:42;18.93;;;13.70;;
54460;SDS011;40371;49.414;11.010;2023-03-01T07:34:08;21.50;;;13.23;;
54460;SDS011;40371;49.414;11.010;2023-03-01T07:36:33;18.00;;;13.30;;
54460;SDS011;40371;49.414;11.010;2023-03-01T07:38:59;19.57;;;13.60;;
54460;SDS011;40371;49.414;11.010;2023-03-01T07:41:27;17.57;;;12.83;;
54460;SDS011;40371;49.414;11.010;2023-03-01T07:43:53;16.83;;;13.70;;
54460;SDS011;40371;49.414;11.010;2023-03-01T07:46:19;16.60;;;12.83;;
54460;SDS011;40371;49.414;11.010;2023-03-01T07:48:45;18.60;;;13.30;;
54460;SDS011;40371;49.414;11.010;2023-03-01T07:51:10;16.77;;;12.60;;
54460;SDS011;40371;49.414;11.010;2023-03-01T07:53:36;18.67;;;14.27;;
54460;SDS011;40371;49.414;11.010;2023-03-01T07:58:33;17.07;;;12.80;;
54460;SDS011;40371;49.414;11.010;2023-03-01T08:01:03;17.37;;;12.43;;
54460;SDS011;40371;49.414;11.010;2023-03-01T08:03:30;17.70;;;13.33;;
54460;SDS011;40371;49.414;11.010;2023-03-01T08:05:59;18.33;;;13.20;;
54460;SDS011;40371;49.414;11.010;2023-03-01T08:08:25;15.90;;;13.43;;
54460;SDS011;40371;49.414;11.010;2023-03-01T08:10:51;14.13;;;12.57;;
54460;SDS011;40371;49.414;11.010;2023-03-01T08:13:16;15.30;;;13.13;;
54460;SDS011;40371;49.414;11.010;2023-03-01T08:15:47;14.73;;;13.17;;
54460;SDS011;40371;49.414;11.010;2023-03-01T08:18:14;14.40;;;12.20;;
54460;SDS011;40371;49.414;11.010;2023-03-01T08:20:40;13.83;;;11.83;;
54460;SDS011;40371;49.414;11.010;2023-03-01T08:23:06;14.83;;;12.43;;
54460;SDS011;40371;49.414;11.010;2023-03-01T08:25:31;15.30;;;12.47;;
54460;SDS011;40371;49.414;11.010;2023-03-01T08:27:57;16.03;;;13.17;;
54460;SDS011;40371;49.414;11.010;2023-03-01T08:30:22;14.50;;;13.03;;
54460;SDS011;40371;49.414;11.010;2023-03-01T08:32:49;14.93;;;13.30;;
54460;SDS011;40371;49.414;11.010;2023-03-01T08:35:15;15.43;;;13.57;;
54460;SDS011;40371;49.414;11.010;2023-03-01T08:37:41;15.63;;;13.73;;
54460;SDS011;40371;49.414;11.010;2023-03-01T08:40:07;14.20;;;12.73;;
54460;SDS011;40371;49.414;11.010;2023-03-01T08:42:35;13.97;;;12.20;;
54460;SDS011;40371;49.414;11.010;2023-03-01T08:45:01;14.30;;;12.70;;
54460;SDS011;40371;49.414;11.010;2023-03-01T08:47:27;15.17;;;12.07;;
54460;SDS011;40371;49.414;11.010;2023-03-01T08:49:53;13.43;;;12.13;;
54460;SDS011;40371;49.414;11.010;2023-03-01T08:52:19;14.15;;;12.73;;
54460;SDS011;40371;49.414;11.010;2023-03-01T08:54:46;12.90;;;11.70;;
54460;SDS011;40371;49.414;11.010;2023-03-01T08:57:12;13.53;;;12.23;;
54460;SDS011;40371;49.414;11.010;2023-03-01T08:59:38;14.10;;;12.65;;
54460;SDS011;40371;49.414;11.010;2023-03-01T09:02:04;13.40;;;12.02;;
54460;SDS011;40371;49.414;11.010;2023-03-01T09:04:31;13.83;;;12.37;;
54460;SDS011;40371;49.414;11.010;2023-03-01T09:06:56;13.00;;;11.80;;
54460;SDS011;40371;49.414;11.010;2023-03-01T09:09:22;13.50;;;12.10;;
54460;SDS011;40371;49.414;11.010;2023-03-01T09:11:48;15.63;;;12.70;;
54460;SDS011;40371;49.414;11.010;2023-03-01T09:14:15;13.47;;;12.07;;
54460;SDS011;40371;49.414;11.010;2023-03-01T09:16:41;12.97;;;11.77;;
54460;SDS011;40371;49.414;11.010;2023-03-01T09:19:06;13.30;;;12.00;;
54460;SDS011;40371;49.414;11.010;2023-03-01T09:21:32;13.03;;;11.57;;
54460;SDS011;40371;49.414;11.010;2023-03-01T09:23:58;13.25;;;11.73;;
54460;SDS011;40371;49.414;11.010;2023-03-01T09:26:23;13.93;;;12.43;;
54460;SDS011;40371;49.414;11.010;2023-03-01T09:28:50;15.20;;;12.13;;
54460;SDS011;40371;49.414;11.010;2023-03-01T09:31:18;14.05;;;12.65;;
54460;SDS011;40371;49.414;11.010;2023-03-01T09:33:46;16.55;;;14.95;;
54460;SDS011;40371;49.414;11.010;2023-03-01T09:36:13;13.88;;;12.43;;
54460;SDS011;40371;49.414;11.010;2023-03-01T09:38:41;13.48;;;12.15;;
54460;SDS011;40371;49.414;11.010;2023-03-01T09:44:07;12.50;;;11.32;;
54460;SDS011;40371;49.414;11.010;2023-03-01T09:46:55;12.75;;;11.60;;
54460;SDS011;40371;49.414;11.010;2023-03-01T09:49:23;12.27;;;11.18;;
54460;SDS011;40371;49.414;11.010;2023-03-01T09:52:12;11.93;;;10.82;;
54460;SDS011;40371;49.414;11.010;2023-03-01T09:54:57;11.85;;;10.85;;
54460;SDS011;40371;49.414;11.010;2023-03-01T10:00:36;11.68;;;10.65;;
54460;SDS011;40371;49.414;11.010;2023-03-01T10:08:29;11.43;;;10.45;;
54460;SDS011;40371;49.414;11.010;2023-03-01T10:11:13;26.08;;;23.58;;
54460;SDS011;40371;49.414;11.010;2023-03-01T10:14:03;18.58;;;16.85;;
54460;SDS011;40371;49.414;11.010;2023-03-01T10:16:52;13.65;;;12.48;;
54460;SDS011;40371;49.414;11.010;2023-03-01T10:22:15;15.23;;;13.63;;
54460;SDS011;40371;49.414;11.010;2023-03-01T10:24:48;12.10;;;10.85;;
54460;SDS011;40371;49.414;11.010;2023-03-01T10:29:54;11.57;;;10.57;;
54460;SDS011;40371;49.414;11.010;2023-03-01T10:32:23;11.38;;;10.48;;
54460;SDS011;40371;49.414;11.010;2023-03-01T10:34:49;14.45;;;13.18;;
54460;SDS011;40371;49.414;11.010;2023-03-01T10:37:18;16.83;;;15.32;;
54460;SDS011;40371;49.414;11.010;2023-03-01T10:42:25;19.40;;;17.70;;
54460;SDS011;40371;49.414;11.010;2023-03-01T10:44:53;23.45;;;21.45;;
54460;SDS011;40371;49.414;11.010;2023-03-01T10:47:20;23.42;;;21.38;;
54460;SDS011;40371;49.414;11.010;2023-03-01T10:49:55;34.22;;;31.17;;
54460;SDS011;40371;49.414;11.010;2023-03-01T10:52:22;12.38;;;11.20;;
54460;SDS011;40371;49.414;11.010;2023-03-01T10:54:54;14.68;;;10.98;;
54460;SDS011;40371;49.414;11.010;2023-03-01T10:57:28;11.77;;;10.80;;
54460;SDS011;40371;49.414;11.010;2023-03-01T11:00:10;11.70;;;10.60;;
54460;SDS011;40371;49.414;11.010;2023-03-01T11:02:41;12.23;;;10.93;;
54460;SDS011;40371;49.414;11.010;2023-03-01T11:05:16;12.02;;;10.82;;
54460;SDS011;40371;49.414;11.010;2023-03-01T11:12:52;11.55;;;10.45;;
54460;SDS011;40371;49.414;11.010;2023-03-01T11:15:26;13.05;;;11.82;;
54460;SDS011;40371;49.414;11.010;2023-03-01T11:17:53;12.38;;;11.27;;
54460;SDS011;40371;49.414;11.010;2023-03-01T11:20:24;11.13;;;10.13;;
54460;SDS011;40371;49.414;11.010;2023-03-01T11:22:54;11.98;;;10.80;;
54460;SDS011;40371;49.414;11.010;2023-03-01T11:25:37;11.55;;;10.43;;
54460;SDS011;40371;49.414;11.010;2023-03-01T11:28:07;11.80;;;10.73;;
54460;SDS011;40371;49.414;11.010;2023-03-01T11:33:24;11.35;;;10.45;;
54460;SDS011;40371;49.414;11.010;2023-03-01T11:41:50;12.07;;;10.98;;
54460;SDS011;40371;49.414;11.010;2023-03-01T11:44:25;11.50;;;10.40;;
54460;SDS011;40371;49.414;11.010;2023-03-01T11:57:47;11.35;;;10.32;;
54460;SDS011;40371;49.414;11.010;2023-03-01T12:03:17;14.05;;;12.65;;
54460;SDS011;40371;49.414;11.010;2023-03-01T12:14:51;12.07;;;10.68;;
54460;SDS011;40371;49.414;11.010;2023-03-01T12:17:46;13.93;;;10.77;;
54460;SDS011;40371;49.414;11.010;2023-03-01T12:20:28;11.60;;;10.60;;
54460;SDS011;40371;49.414;11.010;2023-03-01T12:25:41;11.10;;;10.03;;
54460;SDS011;40371;49.414;11.010;2023-03-01T12:36:57;11.13;;;10.07;;
54460;SDS011;40371;49.414;11.010;2023-03-01T12:48:05;11.87;;;10.00;;
54460;SDS011;40371;49.414;11.010;2023-03-01T12:50:51;13.93;;;10.03;;
54460;SDS011;40371;49.414;11.010;2023-03-01T12:56:20;14.73;;;10.40;;
54460;SDS011;40371;49.414;11.010;2023-03-01T12:58:54;12.47;;;10.97;;
54460;SDS011;40371;49.414;11.010;2023-03-01T13:01:32;12.83;;;10.10;;
54460;SDS011;40371;49.414;11.010;2023-03-01T13:17:55;11.80;;;10.30;;
54460;SDS011;40371;49.414;11.010;2023-03-01T13:20:24;10.77;;;9.67;;
54460;SDS011;40371;49.414;11.010;2023-03-01T13:23:31;10.93;;;9.03;;
54460;SDS011;40371;49.414;11.010;2023-03-01T13:38:59;12.30;;;11.00;;
54460;SDS011;40371;49.414;11.010;2023-03-01T13:46:59;10.70;;;8.93;;
54460;SDS011;40371;49.414;11.010;2023-03-01T13:50:22;12.37;;;9.43;;
54460;SDS011;40371;49.414;11.010;2023-03-01T13:52:36;11.00;;;9.27;;
54460;SDS011;40371;49.414;11.010;2023-03-01T13:55:06;11.83;;;9.50;;
54460;SDS011;40371;49.414;11.010;2023-03-01T13:57:36;10.87;;;9.63;;
54460;SDS011;40371;49.414;11.010;2023-03-01T14:00:04;10.57;;;9.23;;
54460;SDS011;40371;49.414;11.010;2023-03-01T14:02:32;10.97;;;8.40;;
54460;SDS011;40371;49.414;11.010;2023-03-01T14:04:59;9.80;;;8.23;;
54460;SDS011;40371;49.414;11.010;2023-03-01T14:07:26;11.17;;;8.97;;
54460;SDS011;40371;49.414;11.010;2023-03-01T14:09:56;9.03;;;8.13;;
54460;SDS011;40371;49.414;11.010;2023-03-01T14:12:39;11.70;;;9.67;;
54460;SDS011;40371;49.414;11.010;2023-03-01T14:15:06;13.03;;;9.80;;
54460;SDS011;40371;49.414;11.010;2023-03-01T14:17:38;9.73;;;8.73;;
54460;SDS011;40371;49.414;11.010;2023-03-01T14:20:21;12.00;;;9.07;;
54460;SDS011;40371;49.414;11.010;2023-03-01T14:22:50;12.03;;;9.20;;
54460;SDS011;40371;49.414;11.010;2023-03-01T14:25:24;11.87;;;9.00;;
54460;SDS011;40371;49.414;11.010;2023-03-01T14:28:14;12.57;;;9.40;;
54460;SDS011;40371;49.414;11.010;2023-03-01T14:30:49;11.03;;;8.63;;
54460;SDS011;40371;49.414;11.010;2023-03-01T14:33:20;10.70;;;9.43;;
54460;SDS011;40371;49.414;11.010;2023-03-01T14:35:59;10.03;;;8.73;;
54460;SDS011;40371;49.414;11.010;2023-03-01T14:38:45;11.23;;;8.67;;
54460;SDS011;40371;49.414;11.010;2023-03-01T14:41:16;12.33;;;10.00;;
54460;SDS011;40371;49.414;11.010;2023-03-01T14:43:50;13.53;;;9.10;;
54460;SDS011;40371;49.414;11.010;2023-03-01T14:46:21;10.67;;;9.17;;
54460;SDS011;40371;49.414;11.010;2023-03-01T14:48:57;12.53;;;9.23;;
54460;SDS011;40371;49.414;11.010;2023-03-01T14:51:27;11.37;;;9.10;;
54460;SDS011;40371;49.414;11.010;2023-03-01T14:53:53;10.77;;;9.03;;
54460;SDS011;40371;49.414;11.010;2023-03-01T14:56:19;11.63;;;10.13;;
54460;SDS011;40371;49.414;11.010;2023-03-01T14:58:44;12.87;;;10.00;;
54460;SDS011;40371;49.414;11.010;2023-03-01T15:01:14;12.20;;;10.30;;
54460;SDS011;40371;49.414;11.010;2023-03-01T15:03:43;12.53;;;10.43;;
54460;SDS011;40371;49.414;11.010;2023-03-01T15:06:17;13.53;;;10.37;;
54460;SDS011;40371;49.414;11.010;2023-03-01T15:08:45;11.87;;;9.50;;
54460;SDS011;40371;49.414;11.010;2023-03-01T15:13:39;13.37;;;10.60;;
54460;SDS011;40371;49.414;11.010;2023-03-01T15:18:47;11.63;;;10.07;;
54460;SDS011;40371;49.414;11.010;2023-03-01T15:23:56;14.53;;;9.67;;
54460;SDS011;40371;49.414;11.010;2023-03-01T15:26:30;12.33;;;9.73;;
54460;SDS011;40371;49.414;11.010;2023-03-01T15:28:59;11.23;;;9.13;;
54460;SDS011;40371;49.414;11.010;2023-03-01T15:31:27;13.50;;;9.67;;
54460;SDS011;40371;49.414;11.010;2023-03-01T15:34:08;10.07;;;8.90;;
54460;SDS011;40371;49.414;11.010;2023-03-01T15:36:48;11.50;;;9.07;;
54460;SDS011;40371;49.414;11.010;2023-03-01T15:42:05;10.97;;;9.37;;
54460;SDS011;40371;49.414;11.010;2023-03-01T15:45:06;12.70;;;9.17;;
54460;SDS011;40371;49.414;11.010;2023-03-01T15:47:40;13.33;;;10.27;;
54460;SDS011;40371;49.414;11.010;2023-03-01T15:50:29;16.17;;;9.37;;
54460;SDS011;40371;49.414;11.010;2023-03-01T15:53:01;12.13;;;9.03;;
54460;SDS011;40371;49.414;11.010;2023-03-01T15:55:31;11.50;;;8.80;;
54460;SDS011;40371;49.414;11.010;2023-03-01T15:58:12;12.17;;;9.83;;
54460;SDS011;40371;49.414;11.010;2023-03-01T16:00:41;10.40;;;8.70;;
54460;SDS011;40371;49.414;11.010;2023-03-01T16:03:08;10.40;;;9.13;;
54460;SDS011;40371;49.414;11.010;2023-03-01T16:05:36;10.33;;;9.23;;
54460;SDS011;40371;49.414;11.010;2023-03-01T16:08:03;11.67;;;9.73;;
54460;SDS011;40371;49.414;11.010;2023-03-01T16:10:33;12.30;;;9.33;;
54460;SDS011;40371;49.414;11.010;2023-03-01T16:13:00;10.43;;;9.33;;
54460;SDS011;40371;49.414;11.010;2023-03-01T16:15:27;10.37;;;9.27;;
54460;SDS011;40371;49.414;11.010;2023-03-01T16:17:58;10.07;;;9.07;;
54460;SDS011;40371;49.414;11.010;2023-03-01T16:20:24;12.07;;;10.07;;
54460;SDS011;40371;49.414;11.010;2023-03-01T16:22:50;11.70;;;9.80;;
54460;SDS011;40371;49.414;11.010;2023-03-01T16:25:17;12.53;;;9.33;;
54460;SDS011;40371;49.414;11.010;2023-03-01T16:27:45;11.87;;;9.87;;
54460;SDS011;40371;49.414;11.010;2023-03-01T16:30:12;13.83;;;9.87;;
54460;SDS011;40371;49.414;11.010;2023-03-01T16:32:40;11.53;;;9.73;;
54460;SDS011;40371;49.414;11.010;2023-03-01T16:35:08;11.50;;;10.17;;
54460;SDS011;40371;49.414;11.010;2023-03-01T16:37:35;11.73;;;10.17;;